sensor_id;sensor_type;location;lat;lon;timestamp;temperature;humidity
43987;DHT22;29650;47.378;8.300;2023-04-25T00:02:11;9.30;99.90
43987;DHT22;29650;47.378;8.300;2023-04-25T00:04:38;9.30;99.90
43987;DHT22;29650;47.378;8.300;2023-04-25T00:07:07;9.60;99.90
43987;DHT22;29650;47.378;8.300;2023-04-25T00:09:34;9.30;99.90
43987;DHT22;29650;47.378;8.300;2023-04-25T00:12:01;9.20;99.90
43987;DHT22;29650;47.378;8.300;2023-04-25T00:14:29;9.20;98.90
43987;DHT22;29650;47.378;8.300;2023-04-25T00:16:59;9.50;94.60
43987;DHT22;29650;47.378;8.300;2023-04-25T00:19:26;9.70;90.30
43987;DHT22;29650;47.378;8.300;2023-04-25T00:21:53;9.70;88.70
43987;DHT22;29650;47.378;8.300;2023-04-25T00:24:22;9.70;87.50
43987;DHT22;29650;47.378;8.300;2023-04-25T00:26:49;9.70;85.20
43987;DHT22;29650;47.378;8.300;2023-04-25T00:29:16;9.60;88.80
43987;DHT22;29650;47.378;8.300;2023-04-25T00:31:43;9.40;91.40
43987;DHT22;29650;47.378;8.300;2023-04-25T00:34:09;9.30;88.80
43987;DHT22;29650;47.378;8.300;2023-04-25T00:36:36;9.40;86.40
43987;DHT22;29650;47.378;8.300;2023-04-25T00:39:03;9.40;83.60
43987;DHT22;29650;47.378;8.300;2023-04-25T00:41:33;9.40;83.00
43987;DHT22;29650;47.378;8.300;2023-04-25T00:44:01;9.40;83.60
43987;DHT22;29650;47.378;8.300;2023-04-25T00:46:29;9.40;84.50
43987;DHT22;29650;47.378;8.300;2023-04-25T00:48:56;9.20;85.60
43987;DHT22;29650;47.378;8.300;2023-04-25T00:51:23;9.30;85.80
43987;DHT22;29650;47.378;8.300;2023-04-25T00:53:51;9.30;85.30
43987;DHT22;29650;47.378;8.300;2023-04-25T00:56:18;9.20;85.70
43987;DHT22;29650;47.378;8.300;2023-04-25T00:58:48;9.30;85.60
43987;DHT22;29650;47.378;8.300;2023-04-25T01:01:16;9.10;87.20
43987;DHT22;29650;47.378;8.300;2023-04-25T01:03:43;8.90;89.90
43987;DHT22;29650;47.378;8.300;2023-04-25T01:06:12;8.80;90.30
43987;DHT22;29650;47.378;8.300;2023-04-25T01:08:39;8.70;91.80
43987;DHT22;29650;47.378;8.300;2023-04-25T01:11:06;8.60;92.50
43987;DHT22;29650;47.378;8.300;2023-04-25T01:13:34;8.60;93.80
43987;DHT22;29650;47.378;8.300;2023-04-25T01:16:03;8.60;93.70
43987;DHT22;29650;47.378;8.300;2023-04-25T01:18:30;8.70;93.80
43987;DHT22;29650;47.378;8.300;2023-04-25T01:21:02;8.70;92.70
43987;DHT22;29650;47.378;8.300;2023-04-25T01:23:29;8.70;92.80
43987;DHT22;29650;47.378;8.300;2023-04-25T01:25:56;8.70;92.90
43987;DHT22;29650;47.378;8.300;2023-04-25T01:28:23;8.60;93.40
43987;DHT22;29650;47.378;8.300;2023-04-25T01:30:51;8.60;94.00
43987;DHT22;29650;47.378;8.300;2023-04-25T01:33:19;8.50;93.50
43987;DHT22;29650;47.378;8.300;2023-04-25T01:35:47;8.60;94.20
43987;DHT22;29650;47.378;8.300;2023-04-25T01:38:15;8.70;93.70
43987;DHT22;29650;47.378;8.300;2023-04-25T01:40:45;8.60;93.30
43987;DHT22;29650;47.378;8.300;2023-04-25T01:43:12;8.50;93.30
43987;DHT22;29650;47.378;8.300;2023-04-25T01:45:40;8.40;93.90
43987;DHT22;29650;47.378;8.300;2023-04-25T01:48:08;8.30;94.90
43987;DHT22;29650;47.378;8.300;2023-04-25T01:50:35;8.20;95.60
43987;DHT22;29650;47.378;8.300;2023-04-25T01:53:02;8.10;96.20
43987;DHT22;29650;47.378;8.300;2023-04-25T01:55:30;8.10;96.20
43987;DHT22;29650;47.378;8.300;2023-04-25T01:57:57;8.00;96.60
43987;DHT22;29650;47.378;8.300;2023-04-25T02:00:26;7.80;97.60
43987;DHT22;29650;47.378;8.300;2023-04-25T02:02:53;8.90;98.50
43987;DHT22;29650;47.378;8.300;2023-04-25T02:05:19;7.80;96.80
43987;DHT22;29650;47.378;8.300;2023-04-25T02:07:47;7.90;97.00
43987;DHT22;29650;47.378;8.300;2023-04-25T02:10:14;7.90;97.40
43987;DHT22;29650;47.378;8.300;2023-04-25T02:12:42;7.70;97.20
43987;DHT22;29650;47.378;8.300;2023-04-25T02:15:10;8.00;97.80
43987;DHT22;29650;47.378;8.300;2023-04-25T02:17:37;7.80;97.40
43987;DHT22;29650;47.378;8.300;2023-04-25T02:20:05;7.70;97.60
43987;DHT22;29650;47.378;8.300;2023-04-25T02:22:33;7.80;98.00
43987;DHT22;29650;47.378;8.300;2023-04-25T02:25:01;7.70;97.50
43987;DHT22;29650;47.378;8.300;2023-04-25T02:27:30;7.70;98.10
43987;DHT22;29650;47.378;8.300;2023-04-25T02:29:58;7.60;97.80
43987;DHT22;29650;47.378;8.300;2023-04-25T02:32:25;7.70;97.70
43987;DHT22;29650;47.378;8.300;2023-04-25T02:34:52;7.40;97.90
43987;DHT22;29650;47.378;8.300;2023-04-25T02:37:20;7.50;98.70
43987;DHT22;29650;47.378;8.300;2023-04-25T02:39:46;7.50;98.50
43987;DHT22;29650;47.378;8.300;2023-04-25T02:42:13;7.50;98.50
43987;DHT22;29650;47.378;8.300;2023-04-25T02:44:40;7.30;98.50
43987;DHT22;29650;47.378;8.300;2023-04-25T02:47:09;7.30;98.90
43987;DHT22;29650;47.378;8.300;2023-04-25T02:49:36;7.20;99.20
43987;DHT22;29650;47.378;8.300;2023-04-25T02:52:03;7.30;99.30
43987;DHT22;29650;47.378;8.300;2023-04-25T02:54:30;7.20;99.20
43987;DHT22;29650;47.378;8.300;2023-04-25T02:56:57;7.10;98.60
43987;DHT22;29650;47.378;8.300;2023-04-25T02:59:24;7.00;98.50
43987;DHT22;29650;47.378;8.300;2023-04-25T03:01:51;7.00;99.20
43987;DHT22;29650;47.378;8.300;2023-04-25T03:04:19;6.90;98.80
43987;DHT22;29650;47.378;8.300;2023-04-25T03:06:46;6.90;99.30
43987;DHT22;29650;47.378;8.300;2023-04-25T03:09:13;6.60;99.00
43987;DHT22;29650;47.378;8.300;2023-04-25T03:11:40;6.70;99.90
43987;DHT22;29650;47.378;8.300;2023-04-25T03:14:07;6.60;99.90
43987;DHT22;29650;47.378;8.300;2023-04-25T03:16:34;6.60;99.90
43987;DHT22;29650;47.378;8.300;2023-04-25T03:19:02;6.60;99.90
43987;DHT22;29650;47.378;8.300;2023-04-25T03:21:31;6.80;99.90
43987;DHT22;29650;47.378;8.300;2023-04-25T03:23:58;6.80;99.90
43987;DHT22;29650;47.378;8.300;2023-04-25T03:26:26;6.80;99.90
43987;DHT22;29650;47.378;8.300;2023-04-25T03:28:52;6.70;99.90
43987;DHT22;29650;47.378;8.300;2023-04-25T03:31:19;6.70;99.90
43987;DHT22;29650;47.378;8.300;2023-04-25T03:33:48;6.80;99.90
43987;DHT22;29650;47.378;8.300;2023-04-25T03:36:14;6.80;99.90
43987;DHT22;29650;47.378;8.300;2023-04-25T03:38:43;6.70;99.90
43987;DHT22;29650;47.378;8.300;2023-04-25T03:41:10;6.70;99.90
43987;DHT22;29650;47.378;8.300;2023-04-25T03:43:37;6.70;99.90
43987;DHT22;29650;47.378;8.300;2023-04-25T03:46:04;6.70;99.90
43987;DHT22;29650;47.378;8.300;2023-04-25T03:48:31;6.50;99.90
43987;DHT22;29650;47.378;8.300;2023-04-25T03:50:58;6.50;99.90
43987;DHT22;29650;47.378;8.300;2023-04-25T03:53:25;6.50;99.90
43987;DHT22;29650;47.378;8.300;2023-04-25T03:55:54;6.90;99.90
43987;DHT22;29650;47.378;8.300;2023-04-25T03:58:21;6.50;99.90
43987;DHT22;29650;47.378;8.300;2023-04-25T04:00:48;6.40;99.90
43987;DHT22;29650;47.378;8.300;2023-04-25T04:03:15;6.20;99.90
43987;DHT22;29650;47.378;8.300;2023-04-25T04:05:42;6.10;99.90
43987;DHT22;29650;47.378;8.300;2023-04-25T04:08:10;6.10;99.90
43987;DHT22;29650;47.378;8.300;2023-04-25T04:10:37;6.00;99.90
43987;DHT22;29650;47.378;8.300;2023-04-25T04:13:05;5.90;99.90
43987;DHT22;29650;47.378;8.300;2023-04-25T04:15:32;6.00;99.90
43987;DHT22;29650;47.378;8.300;2023-04-25T04:17:59;7.00;99.90
43987;DHT22;29650;47.378;8.300;2023-04-25T04:20:28;5.90;99.90
43987;DHT22;29650;47.378;8.300;2023-04-25T04:22:56;6.00;99.90
43987;DHT22;29650;47.378;8.300;2023-04-25T04:25:23;6.00;99.90
43987;DHT22;29650;47.378;8.300;2023-04-25T04:27:50;6.20;99.90
43987;DHT22;29650;47.378;8.300;2023-04-25T04:30:21;6.30;99.90
43987;DHT22;29650;47.378;8.300;2023-04-25T04:32:49;6.30;99.90
43987;DHT22;29650;47.378;8.300;2023-04-25T04:35:17;6.30;99.90
43987;DHT22;29650;47.378;8.300;2023-04-25T04:37:44;6.30;99.90
43987;DHT22;29650;47.378;8.300;2023-04-25T04:40:11;6.80;99.90
43987;DHT22;29650;47.378;8.300;2023-04-25T04:42:40;6.70;99.90
43987;DHT22;29650;47.378;8.300;2023-04-25T04:45:08;6.50;99.90
43987;DHT22;29650;47.378;8.300;2023-04-25T04:47:38;6.40;99.90
43987;DHT22;29650;47.378;8.300;2023-04-25T04:50:06;6.20;99.90
43987;DHT22;29650;47.378;8.300;2023-04-25T04:52:34;6.20;99.90
43987;DHT22;29650;47.378;8.300;2023-04-25T04:55:01;6.30;99.90
43987;DHT22;29650;47.378;8.300;2023-04-25T04:57:28;6.40;99.90
43987;DHT22;29650;47.378;8.300;2023-04-25T04:59:56;6.50;99.90
43987;DHT22;29650;47.378;8.300;2023-04-25T05:02:23;6.60;99.90
43987;DHT22;29650;47.378;8.300;2023-04-25T05:04:52;6.70;99.90
43987;DHT22;29650;47.378;8.300;2023-04-25T05:07:19;6.80;99.90
43987;DHT22;29650;47.378;8.300;2023-04-25T05:09:46;6.80;99.90
43987;DHT22;29650;47.378;8.300;2023-04-25T05:12:12;6.90;99.90
43987;DHT22;29650;47.378;8.300;2023-04-25T05:14:39;7.00;99.90
43987;DHT22;29650;47.378;8.300;2023-04-25T05:17:06;6.90;99.90
43987;DHT22;29650;47.378;8.300;2023-04-25T05:19:34;6.90;99.90
43987;DHT22;29650;47.378;8.300;2023-04-25T05:22:02;6.80;99.90
43987;DHT22;29650;47.378;8.300;2023-04-25T05:24:30;6.80;99.90
43987;DHT22;29650;47.378;8.300;2023-04-25T05:26:57;7.10;99.90
43987;DHT22;29650;47.378;8.300;2023-04-25T05:29:24;7.10;99.90
43987;DHT22;29650;47.378;8.300;2023-04-25T05:31:51;7.10;99.90
43987;DHT22;29650;47.378;8.300;2023-04-25T05:34:18;7.10;99.90
43987;DHT22;29650;47.378;8.300;2023-04-25T05:36:45;7.20;99.90
43987;DHT22;29650;47.378;8.300;2023-04-25T05:39:15;7.30;99.90
43987;DHT22;29650;47.378;8.300;2023-04-25T05:41:42;7.40;99.90
43987;DHT22;29650;47.378;8.300;2023-04-25T05:44:09;7.30;99.90
43987;DHT22;29650;47.378;8.300;2023-04-25T05:46:37;7.30;99.90
43987;DHT22;29650;47.378;8.300;2023-04-25T05:49:04;7.60;99.90
43987;DHT22;29650;47.378;8.300;2023-04-25T05:51:31;7.90;99.90
43987;DHT22;29650;47.378;8.300;2023-04-25T05:53:58;8.10;99.90
43987;DHT22;29650;47.378;8.300;2023-04-25T05:56:26;8.30;99.90
43987;DHT22;29650;47.378;8.300;2023-04-25T05:58:53;8.40;98.50
43987;DHT22;29650;47.378;8.300;2023-04-25T06:01:22;8.40;97.90
43987;DHT22;29650;47.378;8.300;2023-04-25T06:03:49;8.40;98.80
43987;DHT22;29650;47.378;8.300;2023-04-25T06:06:17;8.30;99.00
43987;DHT22;29650;47.378;8.300;2023-04-25T06:08:44;8.30;99.90
43987;DHT22;29650;47.378;8.300;2023-04-25T06:11:11;8.20;99.90
43987;DHT22;29650;47.378;8.300;2023-04-25T06:13:39;8.10;99.90
43987;DHT22;29650;47.378;8.300;2023-04-25T06:16:06;7.60;99.90
43987;DHT22;29650;47.378;8.300;2023-04-25T06:18:33;7.60;99.90
43987;DHT22;29650;47.378;8.300;2023-04-25T06:21:00;7.40;99.90
43987;DHT22;29650;47.378;8.300;2023-04-25T06:23:28;7.20;99.90
43987;DHT22;29650;47.378;8.300;2023-04-25T06:25:55;7.20;99.90
43987;DHT22;29650;47.378;8.300;2023-04-25T06:28:22;7.20;99.90
43987;DHT22;29650;47.378;8.300;2023-04-25T06:30:51;7.40;99.90
43987;DHT22;29650;47.378;8.300;2023-04-25T06:33:18;7.40;99.90
43987;DHT22;29650;47.378;8.300;2023-04-25T06:35:45;7.40;99.90
43987;DHT22;29650;47.378;8.300;2023-04-25T06:38:12;7.50;99.90
43987;DHT22;29650;47.378;8.300;2023-04-25T06:40:39;7.60;99.90
43987;DHT22;29650;47.378;8.300;2023-04-25T06:43:06;7.60;99.90
43987;DHT22;29650;47.378;8.300;2023-04-25T06:45:33;7.70;99.90
43987;DHT22;29650;47.378;8.300;2023-04-25T06:48:02;7.80;99.90
43987;DHT22;29650;47.378;8.300;2023-04-25T06:50:28;7.90;99.90
43987;DHT22;29650;47.378;8.300;2023-04-25T06:52:55;7.80;99.90
43987;DHT22;29650;47.378;8.300;2023-04-25T06:55:22;8.00;99.90
43987;DHT22;29650;47.378;8.300;2023-04-25T06:57:50;8.00;99.90
43987;DHT22;29650;47.378;8.300;2023-04-25T07:00:18;8.00;99.90
43987;DHT22;29650;47.378;8.300;2023-04-25T07:02:45;8.00;99.90
43987;DHT22;29650;47.378;8.300;2023-04-25T07:05:13;7.90;99.90
43987;DHT22;29650;47.378;8.300;2023-04-25T07:07:40;8.00;99.90
43987;DHT22;29650;47.378;8.300;2023-04-25T07:10:07;7.90;99.90
43987;DHT22;29650;47.378;8.300;2023-04-25T07:12:34;8.10;99.90
43987;DHT22;29650;47.378;8.300;2023-04-25T07:15:01;8.20;99.90
43987;DHT22;29650;47.378;8.300;2023-04-25T07:17:32;8.10;99.90
43987;DHT22;29650;47.378;8.300;2023-04-25T07:19:59;8.00;99.90
43987;DHT22;29650;47.378;8.300;2023-04-25T07:22:28;8.20;99.90
43987;DHT22;29650;47.378;8.300;2023-04-25T07:24:55;8.30;99.90
43987;DHT22;29650;47.378;8.300;2023-04-25T07:27:22;8.00;99.90
43987;DHT22;29650;47.378;8.300;2023-04-25T07:29:49;7.90;99.90
43987;DHT22;29650;47.378;8.300;2023-04-25T07:32:16;8.10;99.90
43987;DHT22;29650;47.378;8.300;2023-04-25T07:34:43;8.20;99.90
43987;DHT22;29650;47.378;8.300;2023-04-25T07:37:10;8.10;99.90
43987;DHT22;29650;47.378;8.300;2023-04-25T07:39:38;8.20;99.90
43987;DHT22;29650;47.378;8.300;2023-04-25T07:42:05;8.10;99.90
43987;DHT22;29650;47.378;8.300;2023-04-25T07:44:33;8.30;99.90
43987;DHT22;29650;47.378;8.300;2023-04-25T07:47:04;8.40;99.90
43987;DHT22;29650;47.378;8.300;2023-04-25T07:49:32;8.60;99.90
43987;DHT22;29650;47.378;8.300;2023-04-25T07:52:00;7.80;99.90
43987;DHT22;29650;47.378;8.300;2023-04-25T07:54:27;8.50;99.90
43987;DHT22;29650;47.378;8.300;2023-04-25T07:56:55;8.40;99.90
43987;DHT22;29650;47.378;8.300;2023-04-25T07:59:22;8.50;99.90
43987;DHT22;29650;47.378;8.300;2023-04-25T08:01:49;8.50;99.90
43987;DHT22;29650;47.378;8.300;2023-04-25T08:04:16;8.80;99.90
43987;DHT22;29650;47.378;8.300;2023-04-25T08:06:43;8.90;99.90
43987;DHT22;29650;47.378;8.300;2023-04-25T08:09:11;8.70;99.90
43987;DHT22;29650;47.378;8.300;2023-04-25T08:11:38;8.80;99.90
43987;DHT22;29650;47.378;8.300;2023-04-25T08:14:06;8.80;99.90
43987;DHT22;29650;47.378;8.300;2023-04-25T08:16:33;9.00;99.90
43987;DHT22;29650;47.378;8.300;2023-04-25T08:19:00;8.90;99.90
43987;DHT22;29650;47.378;8.300;2023-04-25T08:21:27;9.40;99.90
43987;DHT22;29650;47.378;8.300;2023-04-25T08:23:55;9.60;99.90
43987;DHT22;29650;47.378;8.300;2023-04-25T08:26:22;9.50;99.90
43987;DHT22;29650;47.378;8.300;2023-04-25T08:28:50;9.30;99.90
43987;DHT22;29650;47.378;8.300;2023-04-25T08:31:18;9.40;99.90
43987;DHT22;29650;47.378;8.300;2023-04-25T08:33:46;9.40;99.90
43987;DHT22;29650;47.378;8.300;2023-04-25T08:36:13;9.30;99.90
43987;DHT22;29650;47.378;8.300;2023-04-25T08:38:40;9.60;99.90
43987;DHT22;29650;47.378;8.300;2023-04-25T08:41:07;9.40;99.90
43987;DHT22;29650;47.378;8.300;2023-04-25T08:43:35;9.40;99.90
43987;DHT22;29650;47.378;8.300;2023-04-25T08:46:02;9.90;99.90
43987;DHT22;29650;47.378;8.300;2023-04-25T08:48:32;9.50;99.90
43987;DHT22;29650;47.378;8.300;2023-04-25T08:51:01;9.80;99.90
43987;DHT22;29650;47.378;8.300;2023-04-25T08:53:30;9.80;99.90
43987;DHT22;29650;47.378;8.300;2023-04-25T08:55:59;9.60;99.90
43987;DHT22;29650;47.378;8.300;2023-04-25T08:58:27;9.60;99.90
43987;DHT22;29650;47.378;8.300;2023-04-25T09:00:55;9.50;99.90
43987;DHT22;29650;47.378;8.300;2023-04-25T09:03:22;9.20;99.90
43987;DHT22;29650;47.378;8.300;2023-04-25T09:05:51;9.10;99.90
43987;DHT22;29650;47.378;8.300;2023-04-25T09:08:18;8.90;99.90
43987;DHT22;29650;47.378;8.300;2023-04-25T09:10:45;9.30;99.90
43987;DHT22;29650;47.378;8.300;2023-04-25T09:13:13;8.80;99.90
43987;DHT22;29650;47.378;8.300;2023-04-25T09:15:49;8.60;99.90
43987;DHT22;29650;47.378;8.300;2023-04-25T09:18:26;8.60;99.90
43987;DHT22;29650;47.378;8.300;2023-04-25T09:20:56;8.60;99.90
43987;DHT22;29650;47.378;8.300;2023-04-25T09:23:23;9.00;99.90
43987;DHT22;29650;47.378;8.300;2023-04-25T09:25:51;9.30;99.90
43987;DHT22;29650;47.378;8.300;2023-04-25T09:28:23;9.60;99.90
43987;DHT22;29650;47.378;8.300;2023-04-25T09:30:55;10.20;99.90
43987;DHT22;29650;47.378;8.300;2023-04-25T09:33:27;9.90;99.90
43987;DHT22;29650;47.378;8.300;2023-04-25T09:36:02;9.60;99.90
43987;DHT22;29650;47.378;8.300;2023-04-25T09:38:30;9.40;99.90
43987;DHT22;29650;47.378;8.300;2023-04-25T09:40:58;9.40;99.80
43987;DHT22;29650;47.378;8.300;2023-04-25T09:43:26;9.90;99.90
43987;DHT22;29650;47.378;8.300;2023-04-25T09:45:54;10.20;99.90
43987;DHT22;29650;47.378;8.300;2023-04-25T09:48:24;10.10;98.70
43987;DHT22;29650;47.378;8.300;2023-04-25T09:51:06;10.10;97.20
43987;DHT22;29650;47.378;8.300;2023-04-25T09:53:33;10.30;95.00
43987;DHT22;29650;47.378;8.300;2023-04-25T09:56:03;10.40;95.70
43987;DHT22;29650;47.378;8.300;2023-04-25T09:58:31;10.30;92.30
43987;DHT22;29650;47.378;8.300;2023-04-25T10:01:00;10.00;92.00
43987;DHT22;29650;47.378;8.300;2023-04-25T10:03:30;10.00;93.70
43987;DHT22;29650;47.378;8.300;2023-04-25T10:05:59;9.90;93.10
43987;DHT22;29650;47.378;8.300;2023-04-25T10:08:31;10.00;90.70
43987;DHT22;29650;47.378;8.300;2023-04-25T10:11:00;10.30;91.60
43987;DHT22;29650;47.378;8.300;2023-04-25T10:13:28;10.30;91.00
43987;DHT22;29650;47.378;8.300;2023-04-25T10:15:57;9.90;90.50
43987;DHT22;29650;47.378;8.300;2023-04-25T10:18:25;9.80;90.90
43987;DHT22;29650;47.378;8.300;2023-04-25T10:20:53;10.00;91.20
43987;DHT22;29650;47.378;8.300;2023-04-25T10:23:20;9.90;91.70
43987;DHT22;29650;47.378;8.300;2023-04-25T10:25:49;10.30;90.50
43987;DHT22;29650;47.378;8.300;2023-04-25T10:28:18;10.40;88.90
43987;DHT22;29650;47.378;8.300;2023-04-25T10:30:58;9.90;89.70
43987;DHT22;29650;47.378;8.300;2023-04-25T10:33:35;10.00;91.10
43987;DHT22;29650;47.378;8.300;2023-04-25T10:36:10;10.10;90.10
43987;DHT22;29650;47.378;8.300;2023-04-25T10:38:37;10.20;90.20
43987;DHT22;29650;47.378;8.300;2023-04-25T10:41:08;10.20;89.80
43987;DHT22;29650;47.378;8.300;2023-04-25T10:43:39;10.30;89.80
43987;DHT22;29650;47.378;8.300;2023-04-25T10:46:19;10.40;90.80
43987;DHT22;29650;47.378;8.300;2023-04-25T10:48:49;10.40;87.10
43987;DHT22;29650;47.378;8.300;2023-04-25T10:51:18;10.30;87.50
43987;DHT22;29650;47.378;8.300;2023-04-25T10:53:46;10.30;88.00
43987;DHT22;29650;47.378;8.300;2023-04-25T10:56:19;10.30;86.50
43987;DHT22;29650;47.378;8.300;2023-04-25T10:58:47;10.10;85.80
43987;DHT22;29650;47.378;8.300;2023-04-25T11:01:15;10.50;86.90
43987;DHT22;29650;47.378;8.300;2023-04-25T11:03:43;10.50;83.30
43987;DHT22;29650;47.378;8.300;2023-04-25T11:06:20;11.40;81.20
43987;DHT22;29650;47.378;8.300;2023-04-25T11:08:50;11.90;83.40
43987;DHT22;29650;47.378;8.300;2023-04-25T11:11:19;11.30;80.20
43987;DHT22;29650;47.378;8.300;2023-04-25T11:13:48;11.00;83.50
43987;DHT22;29650;47.378;8.300;2023-04-25T11:16:15;10.90;81.20
43987;DHT22;29650;47.378;8.300;2023-04-25T11:18:42;10.90;81.10
43987;DHT22;29650;47.378;8.300;2023-04-25T11:21:10;10.70;79.00
43987;DHT22;29650;47.378;8.300;2023-04-25T11:23:37;10.90;78.00
43987;DHT22;29650;47.378;8.300;2023-04-25T11:26:04;11.00;74.10
43987;DHT22;29650;47.378;8.300;2023-04-25T11:28:32;11.40;73.80
43987;DHT22;29650;47.378;8.300;2023-04-25T11:30:59;11.90;71.90
43987;DHT22;29650;47.378;8.300;2023-04-25T11:33:26;12.20;72.00
43987;DHT22;29650;47.378;8.300;2023-04-25T11:35:54;12.10;69.40
43987;DHT22;29650;47.378;8.300;2023-04-25T11:38:22;11.70;66.90
43987;DHT22;29650;47.378;8.300;2023-04-25T11:40:52;11.60;69.20
43987;DHT22;29650;47.378;8.300;2023-04-25T11:43:20;11.90;71.70
43987;DHT22;29650;47.378;8.300;2023-04-25T11:45:49;12.10;70.30
43987;DHT22;29650;47.378;8.300;2023-04-25T11:48:17;12.80;67.80
43987;DHT22;29650;47.378;8.300;2023-04-25T11:50:44;12.70;65.00
43987;DHT22;29650;47.378;8.300;2023-04-25T11:53:11;12.20;65.20
43987;DHT22;29650;47.378;8.300;2023-04-25T11:55:38;11.70;64.90
43987;DHT22;29650;47.378;8.300;2023-04-25T11:58:06;11.90;65.90
43987;DHT22;29650;47.378;8.300;2023-04-25T12:00:34;11.90;66.10
43987;DHT22;29650;47.378;8.300;2023-04-25T12:03:02;12.20;66.60
43987;DHT22;29650;47.378;8.300;2023-04-25T12:05:31;12.20;65.40
43987;DHT22;29650;47.378;8.300;2023-04-25T12:08:09;12.30;65.10
43987;DHT22;29650;47.378;8.300;2023-04-25T12:10:38;12.10;62.20
43987;DHT22;29650;47.378;8.300;2023-04-25T12:13:19;12.60;61.80
43987;DHT22;29650;47.378;8.300;2023-04-25T12:15:46;12.30;60.80
43987;DHT22;29650;47.378;8.300;2023-04-25T12:18:14;12.30;61.70
43987;DHT22;29650;47.378;8.300;2023-04-25T12:20:41;12.00;61.30
43987;DHT22;29650;47.378;8.300;2023-04-25T12:23:09;12.60;61.50
43987;DHT22;29650;47.378;8.300;2023-04-25T12:25:38;13.70;60.20
43987;DHT22;29650;47.378;8.300;2023-04-25T12:28:16;13.70;60.00
43987;DHT22;29650;47.378;8.300;2023-04-25T12:30:57;12.70;56.50
43987;DHT22;29650;47.378;8.300;2023-04-25T12:33:27;13.10;58.80
43987;DHT22;29650;47.378;8.300;2023-04-25T12:35:54;13.00;57.70
43987;DHT22;29650;47.378;8.300;2023-04-25T12:38:23;12.80;58.80
43987;DHT22;29650;47.378;8.300;2023-04-25T12:40:50;12.80;57.80
43987;DHT22;29650;47.378;8.300;2023-04-25T12:43:17;13.10;60.10
43987;DHT22;29650;47.378;8.300;2023-04-25T12:45:44;12.90;58.00
43987;DHT22;29650;47.378;8.300;2023-04-25T12:48:11;12.40;59.50
43987;DHT22;29650;47.378;8.300;2023-04-25T12:50:39;12.60;61.00
43987;DHT22;29650;47.378;8.300;2023-04-25T12:53:06;12.40;57.90
43987;DHT22;29650;47.378;8.300;2023-04-25T12:55:34;12.20;58.60
43987;DHT22;29650;47.378;8.300;2023-04-25T12:58:01;12.30;58.30
43987;DHT22;29650;47.378;8.300;2023-04-25T13:00:28;12.30;58.90
43987;DHT22;29650;47.378;8.300;2023-04-25T13:02:55;12.40;58.00
43987;DHT22;29650;47.378;8.300;2023-04-25T13:05:22;12.30;57.50
43987;DHT22;29650;47.378;8.300;2023-04-25T13:07:51;12.20;57.50
43987;DHT22;29650;47.378;8.300;2023-04-25T13:10:18;12.20;58.20
43987;DHT22;29650;47.378;8.300;2023-04-25T13:12:44;12.40;59.90
43987;DHT22;29650;47.378;8.300;2023-04-25T13:15:12;12.20;59.00
43987;DHT22;29650;47.378;8.300;2023-04-25T13:17:41;12.50;59.40
43987;DHT22;29650;47.378;8.300;2023-04-25T13:20:09;12.50;57.00
43987;DHT22;29650;47.378;8.300;2023-04-25T13:22:37;12.20;55.80
43987;DHT22;29650;47.378;8.300;2023-04-25T13:25:07;12.80;57.00
43987;DHT22;29650;47.378;8.300;2023-04-25T13:27:35;12.90;56.10
43987;DHT22;29650;47.378;8.300;2023-04-25T13:30:04;13.00;55.60
43987;DHT22;29650;47.378;8.300;2023-04-25T13:32:33;12.70;56.80
43987;DHT22;29650;47.378;8.300;2023-04-25T13:35:02;12.70;55.50
43987;DHT22;29650;47.378;8.300;2023-04-25T13:37:29;13.40;57.80
43987;DHT22;29650;47.378;8.300;2023-04-25T13:39:59;13.50;55.90
43987;DHT22;29650;47.378;8.300;2023-04-25T13:42:30;13.70;55.70
43987;DHT22;29650;47.378;8.300;2023-04-25T13:44:57;13.60;55.40
43987;DHT22;29650;47.378;8.300;2023-04-25T13:47:26;13.40;54.50
43987;DHT22;29650;47.378;8.300;2023-04-25T13:49:53;13.00;55.50
43987;DHT22;29650;47.378;8.300;2023-04-25T13:52:20;12.70;62.10
43987;DHT22;29650;47.378;8.300;2023-04-25T13:54:47;12.40;67.60
43987;DHT22;29650;47.378;8.300;2023-04-25T13:57:14;12.60;72.00
43987;DHT22;29650;47.378;8.300;2023-04-25T13:59:43;12.00;71.60
43987;DHT22;29650;47.378;8.300;2023-04-25T14:02:09;12.00;72.10
43987;DHT22;29650;47.378;8.300;2023-04-25T14:04:37;12.00;73.20
43987;DHT22;29650;47.378;8.300;2023-04-25T14:07:04;11.70;75.20
43987;DHT22;29650;47.378;8.300;2023-04-25T14:09:31;11.40;77.40
43987;DHT22;29650;47.378;8.300;2023-04-25T14:11:58;11.30;78.90
43987;DHT22;29650;47.378;8.300;2023-04-25T14:14:26;11.20;83.60
43987;DHT22;29650;47.378;8.300;2023-04-25T14:16:54;10.90;87.70
43987;DHT22;29650;47.378;8.300;2023-04-25T14:19:22;10.60;91.20
43987;DHT22;29650;47.378;8.300;2023-04-25T14:21:49;10.40;91.20
43987;DHT22;29650;47.378;8.300;2023-04-25T14:24:16;10.50;92.00
43987;DHT22;29650;47.378;8.300;2023-04-25T14:26:43;10.30;92.30
43987;DHT22;29650;47.378;8.300;2023-04-25T14:29:10;10.70;93.80
43987;DHT22;29650;47.378;8.300;2023-04-25T14:31:38;10.60;91.70
43987;DHT22;29650;47.378;8.300;2023-04-25T14:34:08;10.70;91.70
43987;DHT22;29650;47.378;8.300;2023-04-25T14:36:35;10.60;93.10
43987;DHT22;29650;47.378;8.300;2023-04-25T14:39:02;10.20;90.50
43987;DHT22;29650;47.378;8.300;2023-04-25T14:41:30;10.30;87.80
43987;DHT22;29650;47.378;8.300;2023-04-25T14:43:57;10.00;89.00
43987;DHT22;29650;47.378;8.300;2023-04-25T14:46:24;10.00;88.60
43987;DHT22;29650;47.378;8.300;2023-04-25T14:48:52;10.40;89.30
43987;DHT22;29650;47.378;8.300;2023-04-25T14:51:22;10.50;88.20
43987;DHT22;29650;47.378;8.300;2023-04-25T14:53:49;10.40;90.10
43987;DHT22;29650;47.378;8.300;2023-04-25T14:56:16;10.70;93.00
43987;DHT22;29650;47.378;8.300;2023-04-25T14:58:44;10.30;92.60
43987;DHT22;29650;47.378;8.300;2023-04-25T15:01:11;10.50;94.50
43987;DHT22;29650;47.378;8.300;2023-04-25T15:03:38;10.40;94.60
43987;DHT22;29650;47.378;8.300;2023-04-25T15:06:05;10.30;94.30
43987;DHT22;29650;47.378;8.300;2023-04-25T15:08:34;10.70;95.20
43987;DHT22;29650;47.378;8.300;2023-04-25T15:11:01;10.70;93.50
43987;DHT22;29650;47.378;8.300;2023-04-25T15:13:28;10.50;92.20
43987;DHT22;29650;47.378;8.300;2023-04-25T15:15:55;10.70;92.70
43987;DHT22;29650;47.378;8.300;2023-04-25T15:18:22;11.10;92.00
43987;DHT22;29650;47.378;8.300;2023-04-25T15:20:50;11.60;90.10
43987;DHT22;29650;47.378;8.300;2023-04-25T15:23:17;11.60;85.00
43987;DHT22;29650;47.378;8.300;2023-04-25T15:25:46;11.30;84.40
43987;DHT22;29650;47.378;8.300;2023-04-25T15:28:13;11.60;86.00
43987;DHT22;29650;47.378;8.300;2023-04-25T15:30:41;11.90;83.40
43987;DHT22;29650;47.378;8.300;2023-04-25T15:33:08;12.20;81.50
43987;DHT22;29650;47.378;8.300;2023-04-25T15:35:35;12.70;85.40
43987;DHT22;29650;47.378;8.300;2023-04-25T15:38:02;12.80;79.40
43987;DHT22;29650;47.378;8.300;2023-04-25T15:40:29;12.50;76.80
43987;DHT22;29650;47.378;8.300;2023-04-25T15:42:57;12.40;76.70
43987;DHT22;29650;47.378;8.300;2023-04-25T15:45:25;13.10;74.40